Aérodrome :
LOGIN :

S'inscrire | Disclaimer

   EN    FR    IT 

 










Légende :    VFR   VFR Marginal   IFR   IFR Intensif   IFR Très Intensif
Visi : 
Plafond : 
>= 8 km
>= 3000ft
5 à 8 km
1000 à 3000 ft
1500m à 5 km
500 à 1000 ft
800 à 1500m
200 à 500 ft
< 800m
< 200 ft
Symboles :   Orages  Brouillard  Fortes neiges  Fortes précipitations  Vent > 20 kt
SIGMETs :   Divers  Orages  Givrage  Turbulence  Onde Orograph.  Cendres Volcan.







- Altitude de l'aérodrome : 505 ft
- Code IATA : SXB
- Voir les cartes d'approche


LFST - Strasbourg

DERNIER METAR :
  • 270130Z AUTO VRB02KT 9999 ///TCU 19/18 Q1010 TEMPO 4000 SHRA

METARs EXPIRÉS :
  • 270100Z AUTO VRB02KT 9999 -RA ///TCU 19/17 Q1011 TEMPO 4000 SHRA
  • 270030Z AUTO 20007KT 7000 RA ///CB 19/18 Q1011 TEMPO 4000 SHRA
  • 270000Z AUTO 20006KT 9999 ///TCU 19/18 Q1011 TEMPO 4000 SHRA
  • 262330Z AUTO 21006KT 160V230 9999 ///TCU 19/18 Q1011 TEMPO 4000 SHRA
  • 262300Z AUTO 08003KT 050V110 9999 -RA FEW060 OVC100 19/18 Q1011 NOSIG

TAF TAF LFST
Valide du 27 à 00h jusqu'au 28 à 00h UTC


262300Z 2700/2724 01005KT 9999 FEW050 BKN090
TEMPO 2700/2707 4000 SHRA SCT020TCU
BECMG 2709/2711 19010KT FEW040CB SCT050
PROB40
TEMPO 2711/2724 4000 SHRA
Pas de NOTAMs connus pour ce terrain.



MET'MAP, la Météo Aéronautique d'un coup d'oeil ! - Copyright ORBIFLY Décembre 2007 - Disclaimer

ORBIFLY MET'MAP TEAM :

Programmation & Développement : Alexandra Zaïnal
Conception & Développement : Baudouin d'Aumeries
Co-Programmation & Développement : Marc-Olivier Méhu
Soutien technique & logistique : Manuel Goepfert

Contact : metmap@orbifly.com




SOURCES & CREDITS :

   NOAA